createdAt,value
2023-02-26T00:01:37.535Z,98708.72
2023-02-26T00:04:06.115Z,98715.59
2023-02-26T00:06:35.191Z,98719.66
2023-02-26T00:09:03.126Z,98710.56
2023-02-26T00:11:29.944Z,98715.59
2023-02-26T00:13:56.816Z,98711.19
2023-02-26T00:16:23.565Z,98708.88
2023-02-26T00:18:50.572Z,98705.25
2023-02-26T00:21:19.640Z,98700.94
2023-02-26T00:23:46.547Z,98703.41
2023-02-26T00:26:13.117Z,98694.91
2023-02-26T00:28:39.919Z,98695.66
2023-02-26T00:31:07.396Z,98689.78
2023-02-26T00:33:34.349Z,98693.19
2023-02-26T00:36:42.694Z,98690.56
2023-02-26T00:39:24.016Z,98689.81
2023-02-26T00:41:50.884Z,98691.34
2023-02-26T00:44:17.884Z,98688.56
2023-02-26T00:46:53.179Z,98691.13
2023-02-26T00:49:31.759Z,98692.06
2023-02-26T00:52:02.001Z,98694.47
2023-02-26T00:54:30.923Z,98692.88
2023-02-26T00:56:59.017Z,98699.78
2023-02-26T00:59:25.841Z,98700.31
2023-02-26T01:01:53.680Z,98699.44
2023-02-26T01:04:22.501Z,98694.34
2023-02-26T01:06:55.389Z,98703.66
2023-02-26T01:09:27.886Z,98696.78
2023-02-26T01:12:01.721Z,98686.66
2023-02-26T01:14:32.284Z,98689.94
2023-02-26T01:17:33.428Z,98692.50
2023-02-26T01:20:16.784Z,98687.47
2023-02-26T01:22:49.845Z,98683.88
2023-02-26T01:25:23.473Z,98676.94
2023-02-26T01:27:50.370Z,98667.66
2023-02-26T01:30:18.106Z,98671.19
2023-02-26T01:32:51.593Z,98674.47
2023-02-26T01:35:31.491Z,98661.59
2023-02-26T01:38:04.891Z,98656.41
2023-02-26T01:41:08.936Z,98659.88
2023-02-26T01:43:48.186Z,98665.47
2023-02-26T01:46:23.338Z,98663.03
2023-02-26T01:48:53.836Z,98662.63
2023-02-26T01:51:50.814Z,98665.69
2023-02-26T01:54:20.896Z,98658.47
2023-02-26T01:56:52.812Z,98659.56
2023-02-26T01:59:24.786Z,98662.81
2023-02-26T02:01:57.145Z,98652.50
2023-02-26T02:04:24.621Z,98652.50
2023-02-26T02:06:51.948Z,98649.94
2023-02-26T02:09:19.099Z,98650.66
2023-02-26T02:11:56.307Z,98647.19
2023-02-26T02:14:40.141Z,98654.28
2023-02-26T02:17:17.771Z,98658.84
2023-02-26T02:20:08.198Z,98666.66
2023-02-26T02:22:51.496Z,98659.59
2023-02-26T02:25:36.748Z,98660.38
2023-02-26T02:28:14.266Z,98654.41
2023-02-26T02:30:59.193Z,98661.09
2023-02-26T02:33:33.129Z,98657.78
2023-02-26T02:36:05.209Z,98662.00
2023-02-26T02:38:37.823Z,98663.38
2023-02-26T02:41:15.166Z,98667.22
2023-02-26T02:43:43.687Z,98663.88
2023-02-26T02:46:16.476Z,98663.50
2023-02-26T02:49:04.701Z,98660.53
2023-02-26T02:51:35.902Z,98663.09
2023-02-26T02:54:08.792Z,98668.03
2023-02-26T02:56:41.411Z,98680.72
2023-02-26T02:59:22.258Z,98674.84
2023-02-26T03:01:54.738Z,98673.81
2023-02-26T03:04:21.379Z,98678.25
2023-02-26T03:06:50.094Z,98678.88
2023-02-26T03:09:16.769Z,98673.63
2023-02-26T03:11:43.473Z,98673.22
2023-02-26T03:14:11.191Z,98687.50
2023-02-26T03:17:04.169Z,98683.06
2023-02-26T03:19:45.844Z,98693.19
2023-02-26T03:22:18.649Z,98701.88
2023-02-26T03:25:11.353Z,98702.25
2023-02-26T03:27:43.044Z,98695.72
2023-02-26T03:30:25.491Z,98699.94
2023-02-26T03:33:11.580Z,98709.38
2023-02-26T03:35:59.192Z,98711.06
2023-02-26T03:38:35.017Z,98713.28
2023-02-26T03:41:08.848Z,98718.78
2023-02-26T03:43:44.209Z,98710.00
2023-02-26T03:46:34.106Z,98712.97
2023-02-26T03:49:07.371Z,98720.16
2023-02-26T03:51:35.633Z,98725.09
2023-02-26T03:54:10.037Z,98731.97
2023-02-26T03:56:43.736Z,98723.47
2023-02-26T03:59:10.686Z,98736.06
2023-02-26T04:01:46.861Z,98736.16
2023-02-26T04:04:20.596Z,98748.16
2023-02-26T04:06:48.112Z,98749.78
2023-02-26T04:09:16.176Z,98753.03
2023-02-26T04:11:43.994Z,98754.81
2023-02-26T04:14:10.844Z,98763.13
2023-02-26T04:16:37.419Z,98766.38
2023-02-26T04:19:04.124Z,98763.94
2023-02-26T04:21:30.747Z,98768.25
2023-02-26T04:23:57.657Z,98766.31
2023-02-26T04:26:24.427Z,98771.66
2023-02-26T04:28:51.111Z,98778.78
2023-02-26T04:31:17.949Z,98782.16
2023-02-26T04:33:44.606Z,98778.88
2023-02-26T04:36:11.290Z,98781.25
2023-02-26T04:38:37.973Z,98780.81
2023-02-26T04:41:04.669Z,98779.72
2023-02-26T04:43:31.239Z,98783.19
2023-02-26T04:45:57.825Z,98781.22
2023-02-26T04:48:24.504Z,98782.69
2023-02-26T04:50:51.087Z,98777.91
2023-02-26T04:53:17.621Z,98786.47
2023-02-26T04:55:44.238Z,98788.47
2023-02-26T04:58:11.400Z,98790.50
2023-02-26T05:00:37.940Z,98804.88
2023-02-26T05:03:04.619Z,98797.06
2023-02-26T05:05:31.320Z,98798.59
2023-02-26T05:07:58.775Z,98797.94
2023-02-26T05:10:25.567Z,98791.94
2023-02-26T05:12:52.112Z,98784.06
2023-02-26T05:15:18.784Z,98794.22
2023-02-26T05:17:45.424Z,98792.56
2023-02-26T05:20:12.422Z,98796.75
2023-02-26T05:22:39.867Z,98787.13
2023-02-26T05:25:07.207Z,98792.28
2023-02-26T05:27:34.465Z,98789.00
2023-02-26T05:30:01.467Z,98794.53
2023-02-26T05:32:28.128Z,98800.22
2023-02-26T05:34:54.892Z,98792.59
2023-02-26T05:37:21.789Z,98785.97
2023-02-26T05:39:48.345Z,98794.25
2023-02-26T05:42:15.201Z,98800.84
2023-02-26T05:44:41.762Z,98783.38
2023-02-26T05:47:08.394Z,98795.00
2023-02-26T05:49:34.998Z,98787.72
2023-02-26T05:52:02.399Z,98789.72
2023-02-26T05:54:29.048Z,98798.25
2023-02-26T05:56:55.967Z,98807.28
2023-02-26T05:59:22.759Z,98804.50
2023-02-26T06:01:49.651Z,98807.88
2023-02-26T06:04:16.556Z,98799.28
2023-02-26T06:06:43.293Z,98802.84
2023-02-26T06:09:09.845Z,98803.34
2023-02-26T06:11:36.656Z,98803.94
2023-02-26T06:14:03.975Z,98819.91
2023-02-26T06:16:30.562Z,98818.03
2023-02-26T06:18:57.103Z,98828.38
2023-02-26T06:21:23.706Z,98827.47
2023-02-26T06:23:50.381Z,98830.91
2023-02-26T06:26:16.986Z,98835.41
2023-02-26T06:28:43.645Z,98843.91
2023-02-26T06:31:10.158Z,98851.72
2023-02-26T06:33:37.501Z,98845.66
2023-02-26T06:36:05.099Z,98842.38
2023-02-26T06:38:31.687Z,98847.53
2023-02-26T06:40:58.265Z,98849.19
2023-02-26T06:43:24.874Z,98852.03
2023-02-26T06:45:51.649Z,98853.97
2023-02-26T06:48:18.908Z,98856.63
2023-02-26T06:50:45.472Z,98863.19
2023-02-26T06:53:12.175Z,98864.28
2023-02-26T06:55:44.544Z,98863.53
2023-02-26T06:58:11.921Z,98877.69
2023-02-26T07:00:40.425Z,98877.81
2023-02-26T07:03:07.677Z,98879.44
2023-02-26T07:05:34.215Z,98885.63
2023-02-26T07:08:00.758Z,98893.38
2023-02-26T07:10:27.322Z,98901.16
2023-02-26T07:12:53.950Z,98903.81
2023-02-26T07:15:20.517Z,98920.25
2023-02-26T07:17:47.302Z,98913.81
2023-02-26T07:20:14.433Z,98917.47
2023-02-26T07:22:41.180Z,98914.69
2023-02-26T07:25:08.248Z,98915.06
2023-02-26T07:27:34.970Z,98931.09
2023-02-26T07:30:02.460Z,98931.66
2023-02-26T07:32:29.225Z,98934.25
2023-02-26T07:34:55.969Z,98933.78
2023-02-26T07:37:22.606Z,98939.31
2023-02-26T07:39:49.339Z,98944.59
2023-02-26T07:42:16.036Z,98940.81
2023-02-26T07:44:42.791Z,98955.56
2023-02-26T07:47:10.921Z,98949.63
2023-02-26T07:49:37.676Z,98953.25
2023-02-26T07:52:04.382Z,98957.75
2023-02-26T07:54:31.060Z,98961.63
2023-02-26T07:56:57.619Z,98963.41
2023-02-26T07:59:24.160Z,98962.53
2023-02-26T08:01:50.678Z,98960.91
2023-02-26T08:04:17.316Z,98970.94
2023-02-26T08:06:43.951Z,98984.22
2023-02-26T08:09:10.616Z,98989.72
2023-02-26T08:11:39.957Z,98987.19
2023-02-26T08:14:07.617Z,98991.88
2023-02-26T08:16:34.178Z,98998.22
2023-02-26T08:19:01.301Z,98999.88
2023-02-26T08:21:27.883Z,98997.41
2023-02-26T08:23:54.494Z,98999.00
2023-02-26T08:26:21.131Z,99004.13
2023-02-26T08:28:48.334Z,99003.19
2023-02-26T08:31:15.603Z,99002.09
2023-02-26T08:33:42.593Z,99003.69
2023-02-26T08:36:09.585Z,99012.09
2023-02-26T08:38:36.194Z,99014.63
2023-02-26T08:41:02.797Z,99009.84
2023-02-26T08:43:29.971Z,99010.91
2023-02-26T08:45:57.774Z,99002.84
2023-02-26T08:48:24.826Z,98998.72
2023-02-26T08:50:51.661Z,99001.75
2023-02-26T08:53:18.571Z,99007.81
2023-02-26T08:55:51.199Z,99011.63
2023-02-26T08:58:18.453Z,99001.81
2023-02-26T09:00:45.528Z,99004.41
2023-02-26T09:03:13.140Z,99010.25
2023-02-26T09:05:40.940Z,99019.66
2023-02-26T09:08:08.175Z,99011.81
2023-02-26T09:10:34.797Z,99033.22
2023-02-26T09:13:01.474Z,99017.13
2023-02-26T09:15:28.114Z,99025.41
2023-02-26T09:17:54.711Z,99019.69
2023-02-26T09:20:21.414Z,99031.47
2023-02-26T09:22:47.973Z,99029.03
2023-02-26T09:25:15.873Z,99034.50
2023-02-26T09:27:42.892Z,99032.53
2023-02-26T09:30:10.605Z,99030.69
2023-02-26T09:32:38.076Z,99030.66
2023-02-26T09:35:05.645Z,99047.88
2023-02-26T09:37:32.601Z,99033.78
2023-02-26T09:39:59.191Z,99049.28
2023-02-26T09:42:39.543Z,99051.53
2023-02-26T09:45:10.218Z,99053.03
2023-02-26T09:47:45.588Z,99056.94
2023-02-26T09:50:31.989Z,99063.50
2023-02-26T09:53:12.931Z,99060.00
2023-02-26T09:55:45.729Z,99058.81
2023-02-26T09:58:36.648Z,99057.75
2023-02-26T10:01:24.856Z,99072.16
2023-02-26T10:04:03.172Z,99074.31
2023-02-26T10:06:35.069Z,99086.00
2023-02-26T10:09:04.607Z,99079.09
2023-02-26T10:11:33.877Z,99078.22
2023-02-26T10:14:22.055Z,99073.34
2023-02-26T10:16:53.715Z,99069.31
2023-02-26T10:19:27.154Z,99094.56
2023-02-26T10:22:15.337Z,99087.72
2023-02-26T10:24:48.136Z,99084.16
2023-02-26T10:27:17.870Z,99101.16
2023-02-26T10:29:56.320Z,99080.56
2023-02-26T10:32:37.105Z,99095.75
2023-02-26T10:35:16.727Z,99088.59
2023-02-26T10:37:59.385Z,99091.66
2023-02-26T10:40:48.943Z,99083.50
2023-02-26T10:43:19.500Z,99099.50
2023-02-26T10:46:17.825Z,99090.16
2023-02-26T10:49:26.032Z,99078.75
2023-02-26T10:51:53.682Z,99089.41
2023-02-26T10:54:22.954Z,99077.75
2023-02-26T10:56:49.651Z,99084.66
2023-02-26T10:59:16.838Z,99079.59
2023-02-26T11:01:43.916Z,99079.69
2023-02-26T11:04:20.061Z,99086.00
2023-02-26T11:06:57.354Z,99091.13
2023-02-26T11:09:27.707Z,99091.69
2023-02-26T11:12:15.969Z,99085.88
2023-02-26T11:14:43.720Z,99091.06
2023-02-26T11:17:29.390Z,99112.91
2023-02-26T11:20:15.051Z,99110.06
2023-02-26T11:22:48.397Z,99105.56
2023-02-26T11:25:19.890Z,99104.72
2023-02-26T11:27:48.759Z,99100.63
2023-02-26T11:30:21.774Z,99102.59
2023-02-26T11:32:52.249Z,99106.22
2023-02-26T11:35:23.742Z,99094.38
2023-02-26T11:37:59.858Z,99092.09
2023-02-26T11:40:40.480Z,99088.28
2023-02-26T11:43:12.439Z,99080.50
2023-02-26T11:45:42.926Z,99089.25
2023-02-26T11:48:15.156Z,99079.81
2023-02-26T11:50:46.468Z,99079.72
2023-02-26T11:53:36.673Z,99094.88
2023-02-26T11:56:09.635Z,99079.72
2023-02-26T11:58:39.219Z,99078.53
2023-02-26T12:01:08.817Z,99083.88
2023-02-26T12:03:41.549Z,99092.13
2023-02-26T12:06:24.787Z,99079.03
2023-02-26T12:08:53.448Z,99083.16
2023-02-26T12:11:26.267Z,99086.69
2023-02-26T12:14:20.940Z,99091.94
2023-02-26T12:16:55.563Z,99089.28
2023-02-26T12:19:37.190Z,99108.69
2023-02-26T12:22:18.960Z,99080.59
2023-02-26T12:25:04.432Z,99071.56
2023-02-26T12:28:10.152Z,99070.22
2023-02-26T12:30:59.433Z,99062.94
2023-02-26T12:33:38.231Z,99061.44
2023-02-26T12:36:52.493Z,99060.84
2023-02-26T12:39:37.287Z,99072.44
2023-02-26T12:42:48.588Z,99044.94
2023-02-26T12:45:18.164Z,99043.47
2023-02-26T12:47:54.042Z,99042.19
2023-02-26T12:50:26.377Z,99029.03
2023-02-26T12:52:58.650Z,99019.59
2023-02-26T12:55:49.147Z,99017.94
2023-02-26T12:58:52.688Z,99017.66
2023-02-26T13:01:19.143Z,99022.78
2023-02-26T13:04:22.459Z,99014.78
2023-02-26T13:06:51.953Z,99007.94
2023-02-26T13:09:21.367Z,98998.63
2023-02-26T13:12:06.287Z,99009.94
2023-02-26T13:14:56.491Z,98988.00
2023-02-26T13:17:45.512Z,98991.84
2023-02-26T13:20:19.614Z,98988.81
2023-02-26T13:22:52.053Z,99002.25
2023-02-26T13:25:48.703Z,98995.00
2023-02-26T13:28:40.680Z,98982.56
2023-02-26T13:31:31.225Z,98984.88
2023-02-26T13:34:06.933Z,98987.41
2023-02-26T13:36:35.290Z,98972.25
2023-02-26T13:39:31.584Z,98967.59
2023-02-26T13:42:05.033Z,98963.47
2023-02-26T13:44:39.563Z,98954.59
2023-02-26T13:47:16.868Z,98962.78
2023-02-26T13:49:45.945Z,98958.06
2023-02-26T13:52:32.913Z,98953.72
2023-02-26T13:54:59.703Z,98966.50
2023-02-26T13:57:36.912Z,98966.72
2023-02-26T14:00:35.155Z,98968.16
2023-02-26T14:03:16.977Z,98969.25
2023-02-26T14:05:46.594Z,98975.69
2023-02-26T14:08:39.217Z,99004.78
2023-02-26T14:11:18.084Z,98978.38
2023-02-26T14:14:12.575Z,99003.47
2023-02-26T14:16:44.952Z,98996.50
2023-02-26T14:19:31.540Z,98991.03
2023-02-26T14:22:26.078Z,99004.66
2023-02-26T14:25:05.586Z,98998.53
2023-02-26T14:27:34.022Z,99012.47
2023-02-26T14:30:10.529Z,98988.44
2023-02-26T14:32:48.943Z,98994.44
2023-02-26T14:35:33.502Z,98999.44
2023-02-26T14:38:05.772Z,98992.34
2023-02-26T14:40:42.889Z,99001.41
2023-02-26T14:43:23.124Z,99006.06
2023-02-26T14:45:50.636Z,98999.00
2023-02-26T14:48:18.980Z,99009.16
2023-02-26T14:51:01.499Z,99013.59
2023-02-26T14:53:43.447Z,99040.34
2023-02-26T14:56:24.581Z,99037.38
2023-02-26T14:59:00.021Z,99031.22
2023-02-26T15:01:44.300Z,99028.03
2023-02-26T15:04:13.787Z,99025.97
2023-02-26T15:06:52.242Z,99038.31
2023-02-26T15:09:34.260Z,99053.41
2023-02-26T15:12:10.112Z,99052.22
2023-02-26T15:14:42.563Z,99054.16
2023-02-26T15:17:23.357Z,99049.72
2023-02-26T15:20:10.368Z,99057.44
2023-02-26T15:22:55.698Z,99053.66
2023-02-26T15:25:44.301Z,99050.66
2023-02-26T15:28:17.867Z,99080.66
2023-02-26T15:30:48.804Z,99091.69
2023-02-26T15:33:19.647Z,99087.94
2023-02-26T15:35:49.731Z,99085.41
2023-02-26T15:38:16.542Z,99083.53
2023-02-26T15:40:44.107Z,99098.19
2023-02-26T15:43:16.796Z,99102.38
2023-02-26T15:45:46.385Z,99126.06
2023-02-26T15:48:44.852Z,99124.31
2023-02-26T15:51:13.891Z,99100.44
2023-02-26T15:53:46.043Z,99115.22
2023-02-26T15:56:26.300Z,99113.88
2023-02-26T15:58:58.487Z,99120.91
2023-02-26T16:01:27.132Z,99129.94
2023-02-26T16:03:57.793Z,99139.00
2023-02-26T16:06:47.723Z,99143.56
2023-02-26T16:09:27.789Z,99151.78
2023-02-26T16:11:58.252Z,99146.88
2023-02-26T16:14:30.040Z,99142.94
2023-02-26T16:16:58.745Z,99172.31
2023-02-26T16:19:34.364Z,99155.91
2023-02-26T16:22:04.979Z,99171.72
2023-02-26T16:24:33.258Z,99167.06
2023-02-26T16:27:07.686Z,99182.06
2023-02-26T16:29:37.690Z,99188.22
2023-02-26T16:32:10.209Z,99195.84
2023-02-26T16:34:52.019Z,99203.81
2023-02-26T16:37:32.197Z,99216.22
2023-02-26T16:40:17.640Z,99213.78
2023-02-26T16:42:54.839Z,99206.03
2023-02-26T16:45:36.842Z,99244.63
2023-02-26T16:48:14.322Z,99222.88
2023-02-26T16:50:41.190Z,99247.47
2023-02-26T16:53:19.642Z,99250.22
2023-02-26T16:55:52.241Z,99259.50
2023-02-26T16:58:20.174Z,99271.22
2023-02-26T17:00:54.271Z,99255.88
2023-02-26T17:03:24.167Z,99266.59
2023-02-26T17:06:05.200Z,99271.44
2023-02-26T17:08:35.325Z,99281.75
2023-02-26T17:11:03.286Z,99281.16
2023-02-26T17:13:32.577Z,99279.47
2023-02-26T17:16:04.114Z,99277.09
2023-02-26T17:18:31.130Z,99291.91
2023-02-26T17:20:59.734Z,99291.94
2023-02-26T17:23:30.677Z,99289.72
2023-02-26T17:26:02.472Z,99308.38
2023-02-26T17:28:31.969Z,99301.91
2023-02-26T17:30:58.574Z,99315.81
2023-02-26T17:33:25.161Z,99312.06
2023-02-26T17:35:54.664Z,99308.53
2023-02-26T17:38:21.279Z,99319.00
2023-02-26T17:40:47.855Z,99325.28
2023-02-26T17:43:14.495Z,99332.16
2023-02-26T17:45:41.659Z,99337.22
2023-02-26T17:48:09.097Z,99362.50
2023-02-26T17:50:46.953Z,99350.63
2023-02-26T17:53:15.319Z,99356.19
2023-02-26T17:55:42.674Z,99364.47
2023-02-26T17:58:25.736Z,99377.91
2023-02-26T18:00:53.313Z,99392.63
2023-02-26T18:03:20.604Z,99390.66
2023-02-26T18:05:49.060Z,99396.34
2023-02-26T18:08:25.108Z,99405.75
2023-02-26T18:10:52.739Z,99416.56
2023-02-26T18:13:20.462Z,99427.06
2023-02-26T18:15:47.793Z,99416.22
2023-02-26T18:18:15.492Z,99412.81
2023-02-26T18:20:44.045Z,99435.19
2023-02-26T18:23:13.771Z,99436.91
2023-02-26T18:25:41.687Z,99456.56
2023-02-26T18:28:15.133Z,99431.63
2023-02-26T18:30:44.143Z,99444.25
2023-02-26T18:33:12.626Z,99454.19
2023-02-26T18:35:45.961Z,99461.34
2023-02-26T18:38:18.647Z,99471.91
2023-02-26T18:40:46.524Z,99478.06
2023-02-26T18:43:14.155Z,99467.72
2023-02-26T18:45:42.866Z,99465.81
2023-02-26T18:48:11.894Z,99468.44
2023-02-26T18:50:38.775Z,99468.38
2023-02-26T18:53:05.452Z,99472.25
2023-02-26T18:55:32.013Z,99489.38
2023-02-26T18:57:58.535Z,99481.78
2023-02-26T19:00:25.421Z,99486.22
2023-02-26T19:02:52.208Z,99483.28
2023-02-26T19:05:23.240Z,99486.97
2023-02-26T19:07:51.051Z,99482.19
2023-02-26T19:10:18.757Z,99493.59
2023-02-26T19:12:45.924Z,99483.25
2023-02-26T19:15:13.177Z,99489.34
2023-02-26T19:17:40.811Z,99487.53
2023-02-26T19:20:08.560Z,99488.00
2023-02-26T19:22:35.194Z,99491.47
2023-02-26T19:25:01.739Z,99485.72
2023-02-26T19:27:28.779Z,99493.06
2023-02-26T19:29:55.383Z,99498.22
2023-02-26T19:32:22.075Z,99493.56
2023-02-26T19:34:48.745Z,99488.38
2023-02-26T19:37:15.916Z,99487.72
2023-02-26T19:39:42.583Z,99502.56
2023-02-26T19:42:09.331Z,99506.06
2023-02-26T19:44:36.024Z,99517.28
2023-02-26T19:47:02.669Z,99514.94
2023-02-26T19:49:29.895Z,99520.28
2023-02-26T19:51:56.631Z,99522.47
2023-02-26T19:54:23.269Z,99521.69
2023-02-26T19:56:50.056Z,99531.81
2023-02-26T19:59:17.234Z,99539.13
2023-02-26T20:01:46.381Z,99535.63
2023-02-26T20:04:13.832Z,99537.69
2023-02-26T20:06:40.679Z,99541.56
2023-02-26T20:09:07.312Z,99537.38
2023-02-26T20:11:34.598Z,99547.59
2023-02-26T20:14:02.546Z,99545.78
2023-02-26T20:16:29.186Z,99547.44
2023-02-26T20:18:55.833Z,99545.53
2023-02-26T20:21:23.366Z,99561.31
2023-02-26T20:23:50.198Z,99558.34
2023-02-26T20:26:16.925Z,99561.91
2023-02-26T20:28:43.551Z,99554.97
2023-02-26T20:31:11.220Z,99555.72
2023-02-26T20:33:39.474Z,99562.03
2023-02-26T20:36:10.242Z,99560.97
2023-02-26T20:38:37.389Z,99564.47
2023-02-26T20:41:05.286Z,99561.59
2023-02-26T20:43:32.129Z,99561.69
2023-02-26T20:45:58.722Z,99553.75
2023-02-26T20:48:25.471Z,99565.69
2023-02-26T20:50:53.755Z,99568.31
2023-02-26T20:53:21.803Z,99563.94
2023-02-26T20:55:49.028Z,99567.34
2023-02-26T20:58:15.841Z,99572.22
2023-02-26T21:00:43.067Z,99567.53
2023-02-26T21:03:09.842Z,99572.16
2023-02-26T21:05:37.205Z,99570.03
2023-02-26T21:08:04.342Z,99557.94
2023-02-26T21:10:32.734Z,99571.34
2023-02-26T21:12:59.766Z,99561.59
2023-02-26T21:15:26.675Z,99557.66
2023-02-26T21:17:53.841Z,99576.56
2023-02-26T21:20:22.500Z,99555.22
2023-02-26T21:22:49.643Z,99564.03
2023-02-26T21:25:17.054Z,99554.97
2023-02-26T21:27:43.924Z,99558.25
2023-02-26T21:30:12.088Z,99560.44
2023-02-26T21:32:39.099Z,99560.88
2023-02-26T21:35:07.705Z,99556.44
2023-02-26T21:37:34.499Z,99551.72
2023-02-26T21:40:01.128Z,99555.63
2023-02-26T21:42:27.921Z,99554.94
2023-02-26T21:44:54.607Z,99549.63
2023-02-26T21:47:21.195Z,99547.53
2023-02-26T21:49:48.332Z,99538.75
2023-02-26T21:52:15.161Z,99541.88
2023-02-26T21:54:41.773Z,99537.53
2023-02-26T21:57:08.974Z,99535.84
2023-02-26T21:59:35.920Z,99529.69
2023-02-26T22:02:02.959Z,99517.75
2023-02-26T22:04:29.712Z,99530.69
2023-02-26T22:06:56.789Z,99529.09
2023-02-26T22:09:23.423Z,99529.78
2023-02-26T22:11:50.161Z,99525.16
2023-02-26T22:14:17.073Z,99526.59
2023-02-26T22:16:43.790Z,99522.75
2023-02-26T22:19:11.000Z,99514.00
2023-02-26T22:21:37.666Z,99524.41
2023-02-26T22:24:05.354Z,99520.16
2023-02-26T22:26:32.505Z,99516.03
2023-02-26T22:29:00.758Z,99510.25
2023-02-26T22:31:32.284Z,99504.00
2023-02-26T22:33:59.706Z,99506.19
2023-02-26T22:36:27.700Z,99507.97
2023-02-26T22:38:54.575Z,99504.94
2023-02-26T22:41:22.088Z,99514.06
2023-02-26T22:43:49.399Z,99499.34
2023-02-26T22:46:17.131Z,99498.34
2023-02-26T22:48:44.241Z,99498.47
2023-02-26T22:51:10.836Z,99490.81
2023-02-26T22:53:37.565Z,99498.22
2023-02-26T22:56:04.304Z,99491.13
2023-02-26T22:58:30.837Z,99485.13
2023-02-26T23:01:05.868Z,99493.28
2023-02-26T23:03:33.383Z,99496.56
2023-02-26T23:06:00.634Z,99483.75
2023-02-26T23:08:28.401Z,99494.13
2023-02-26T23:10:57.519Z,99491.78
2023-02-26T23:13:24.652Z,99492.50
2023-02-26T23:15:51.354Z,99481.13
2023-02-26T23:18:18.165Z,99484.34
2023-02-26T23:20:45.612Z,99482.59
2023-02-26T23:23:12.169Z,99482.31
2023-02-26T23:25:41.544Z,99481.16
2023-02-26T23:28:08.616Z,99481.25
2023-02-26T23:30:35.938Z,99487.50
2023-02-26T23:33:03.996Z,99478.47
2023-02-26T23:35:30.562Z,99481.09
2023-02-26T23:37:57.146Z,99471.28
2023-02-26T23:40:23.779Z,99477.00
2023-02-26T23:42:50.313Z,99482.81
2023-02-26T23:45:17.018Z,99475.34
2023-02-26T23:47:43.725Z,99475.53
2023-02-26T23:50:11.132Z,99481.53
2023-02-26T23:52:40.071Z,99474.28
2023-02-26T23:55:07.810Z,99484.56
2023-02-26T23:57:34.486Z,99472.16
